sensor_id;sensor_type;location;lat;lon;timestamp;temperature;humidity
9998;DHT22;5038;53.064;8.624;2023-03-15T00:01:23;2.30;99.90
9998;DHT22;5038;53.064;8.624;2023-03-15T00:03:52;2.30;99.90
9998;DHT22;5038;53.064;8.624;2023-03-15T00:06:21;2.30;99.90
9998;DHT22;5038;53.064;8.624;2023-03-15T00:08:50;2.30;99.90
9998;DHT22;5038;53.064;8.624;2023-03-15T00:11:18;2.40;99.90
9998;DHT22;5038;53.064;8.624;2023-03-15T00:13:46;2.30;99.90
9998;DHT22;5038;53.064;8.624;2023-03-15T00:16:16;2.20;99.90
9998;DHT22;5038;53.064;8.624;2023-03-15T00:18:44;2.40;99.90
9998;DHT22;5038;53.064;8.624;2023-03-15T00:21:13;2.40;99.90
9998;DHT22;5038;53.064;8.624;2023-03-15T00:23:42;2.30;99.90
9998;DHT22;5038;53.064;8.624;2023-03-15T00:26:10;2.30;99.90
9998;DHT22;5038;53.064;8.624;2023-03-15T00:28:39;2.30;99.90
9998;DHT22;5038;53.064;8.624;2023-03-15T00:31:10;2.40;99.90
9998;DHT22;5038;53.064;8.624;2023-03-15T00:33:41;2.30;99.90
9998;DHT22;5038;53.064;8.624;2023-03-15T00:36:10;2.30;99.90
9998;DHT22;5038;53.064;8.624;2023-03-15T00:38:39;2.30;99.90
9998;DHT22;5038;53.064;8.624;2023-03-15T00:41:11;2.30;99.90
9998;DHT22;5038;53.064;8.624;2023-03-15T00:43:40;2.30;99.90
9998;DHT22;5038;53.064;8.624;2023-03-15T00:46:08;2.30;99.90
9998;DHT22;5038;53.064;8.624;2023-03-15T00:48:37;2.30;99.90
9998;DHT22;5038;53.064;8.624;2023-03-15T00:51:08;2.30;99.90
9998;DHT22;5038;53.064;8.624;2023-03-15T00:53:38;2.30;99.90
9998;DHT22;5038;53.064;8.624;2023-03-15T00:56:09;2.30;99.90
9998;DHT22;5038;53.064;8.624;2023-03-15T00:58:38;2.30;99.90
9998;DHT22;5038;53.064;8.624;2023-03-15T01:01:07;2.40;99.90
9998;DHT22;5038;53.064;8.624;2023-03-15T01:03:37;2.40;99.90
9998;DHT22;5038;53.064;8.624;2023-03-15T01:06:08;2.40;99.90
9998;DHT22;5038;53.064;8.624;2023-03-15T01:08:36;2.30;99.90
9998;DHT22;5038;53.064;8.624;2023-03-15T01:11:07;2.40;99.90
9998;DHT22;5038;53.064;8.624;2023-03-15T01:13:36;2.40;99.90
9998;DHT22;5038;53.064;8.624;2023-03-15T01:16:06;2.40;99.90
9998;DHT22;5038;53.064;8.624;2023-03-15T01:18:35;2.40;99.90
9998;DHT22;5038;53.064;8.624;2023-03-15T01:21:07;2.50;99.90
9998;DHT22;5038;53.064;8.624;2023-03-15T01:23:35;2.40;99.90
9998;DHT22;5038;53.064;8.624;2023-03-15T01:26:05;2.50;99.90
9998;DHT22;5038;53.064;8.624;2023-03-15T01:28:34;2.40;99.90
9998;DHT22;5038;53.064;8.624;2023-03-15T01:31:02;2.50;99.90
9998;DHT22;5038;53.064;8.624;2023-03-15T01:33:30;2.50;99.90
9998;DHT22;5038;53.064;8.624;2023-03-15T01:36:00;2.50;99.90
9998;DHT22;5038;53.064;8.624;2023-03-15T01:38:31;2.50;99.90
9998;DHT22;5038;53.064;8.624;2023-03-15T01:41:03;2.50;99.90
9998;DHT22;5038;53.064;8.624;2023-03-15T01:43:32;2.50;99.90
9998;DHT22;5038;53.064;8.624;2023-03-15T01:46:14;2.50;99.90
9998;DHT22;5038;53.064;8.624;2023-03-15T01:48:48;2.60;99.90
9998;DHT22;5038;53.064;8.624;2023-03-15T01:51:24;2.60;99.90
9998;DHT22;5038;53.064;8.624;2023-03-15T01:53:58;2.50;99.90
9998;DHT22;5038;53.064;8.624;2023-03-15T01:56:30;2.60;99.90
9998;DHT22;5038;53.064;8.624;2023-03-15T01:59:02;2.60;99.90
9998;DHT22;5038;53.064;8.624;2023-03-15T02:01:32;2.60;99.90
9998;DHT22;5038;53.064;8.624;2023-03-15T02:04:05;2.60;99.90
9998;DHT22;5038;53.064;8.624;2023-03-15T02:06:38;2.50;99.90
9998;DHT22;5038;53.064;8.624;2023-03-15T02:09:16;2.60;99.90
9998;DHT22;5038;53.064;8.624;2023-03-15T02:11:47;2.70;99.90
9998;DHT22;5038;53.064;8.624;2023-03-15T02:14:17;2.60;99.90
9998;DHT22;5038;53.064;8.624;2023-03-15T02:16:45;2.60;99.90
9998;DHT22;5038;53.064;8.624;2023-03-15T02:19:26;2.50;99.90
9998;DHT22;5038;53.064;8.624;2023-03-15T02:22:00;2.60;99.90
9998;DHT22;5038;53.064;8.624;2023-03-15T02:24:40;2.60;99.90
9998;DHT22;5038;53.064;8.624;2023-03-15T02:27:11;2.50;99.90
9998;DHT22;5038;53.064;8.624;2023-03-15T02:29:42;2.50;99.90
9998;DHT22;5038;53.064;8.624;2023-03-15T02:32:11;2.50;99.90
9998;DHT22;5038;53.064;8.624;2023-03-15T02:34:39;2.60;99.90
9998;DHT22;5038;53.064;8.624;2023-03-15T02:37:08;2.50;99.90
9998;DHT22;5038;53.064;8.624;2023-03-15T02:39:36;2.60;99.90
9998;DHT22;5038;53.064;8.624;2023-03-15T02:42:05;2.60;99.90
9998;DHT22;5038;53.064;8.624;2023-03-15T02:44:35;2.60;99.90
9998;DHT22;5038;53.064;8.624;2023-03-15T02:47:09;2.50;99.90
9998;DHT22;5038;53.064;8.624;2023-03-15T02:49:41;2.60;99.90
9998;DHT22;5038;53.064;8.624;2023-03-15T02:52:10;2.50;99.90
9998;DHT22;5038;53.064;8.624;2023-03-15T02:54:40;2.50;99.90
9998;DHT22;5038;53.064;8.624;2023-03-15T02:57:09;2.50;99.90
9998;DHT22;5038;53.064;8.624;2023-03-15T02:59:37;2.50;99.90
9998;DHT22;5038;53.064;8.624;2023-03-15T03:02:07;2.50;99.90
9998;DHT22;5038;53.064;8.624;2023-03-15T03:04:37;2.50;99.90
9998;DHT22;5038;53.064;8.624;2023-03-15T03:07:07;2.50;99.90
9998;DHT22;5038;53.064;8.624;2023-03-15T03:09:48;2.50;99.90
9998;DHT22;5038;53.064;8.624;2023-03-15T03:12:18;2.50;99.90
9998;DHT22;5038;53.064;8.624;2023-03-15T03:14:47;2.50;99.90
9998;DHT22;5038;53.064;8.624;2023-03-15T03:17:21;2.50;99.90
9998;DHT22;5038;53.064;8.624;2023-03-15T03:19:49;2.50;99.90
9998;DHT22;5038;53.064;8.624;2023-03-15T03:22:24;2.50;99.90
9998;DHT22;5038;53.064;8.624;2023-03-15T03:24:53;2.50;99.90
9998;DHT22;5038;53.064;8.624;2023-03-15T03:27:21;2.50;99.90
9998;DHT22;5038;53.064;8.624;2023-03-15T03:29:50;2.50;99.90
9998;DHT22;5038;53.064;8.624;2023-03-15T03:32:20;2.50;99.90
9998;DHT22;5038;53.064;8.624;2023-03-15T03:34:51;2.60;99.90
9998;DHT22;5038;53.064;8.624;2023-03-15T03:37:21;2.60;99.90
9998;DHT22;5038;53.064;8.624;2023-03-15T03:40:00;2.60;99.90
9998;DHT22;5038;53.064;8.624;2023-03-15T03:42:31;2.60;99.90
9998;DHT22;5038;53.064;8.624;2023-03-15T03:44:59;2.60;99.90
9998;DHT22;5038;53.064;8.624;2023-03-15T03:47:40;2.60;99.90
9998;DHT22;5038;53.064;8.624;2023-03-15T03:50:10;2.50;99.90
9998;DHT22;5038;53.064;8.624;2023-03-15T03:52:39;2.50;99.90
9998;DHT22;5038;53.064;8.624;2023-03-15T03:55:16;2.50;99.90
9998;DHT22;5038;53.064;8.624;2023-03-15T03:57:44;2.50;99.90
9998;DHT22;5038;53.064;8.624;2023-03-15T04:00:22;2.50;99.90
9998;DHT22;5038;53.064;8.624;2023-03-15T04:02:51;2.50;99.90
9998;DHT22;5038;53.064;8.624;2023-03-15T04:05:20;2.50;99.90
9998;DHT22;5038;53.064;8.624;2023-03-15T04:07:48;2.50;99.90
9998;DHT22;5038;53.064;8.624;2023-03-15T04:10:17;2.50;99.90
9998;DHT22;5038;53.064;8.624;2023-03-15T04:12:47;2.50;99.90
9998;DHT22;5038;53.064;8.624;2023-03-15T04:15:16;2.50;99.90
9998;DHT22;5038;53.064;8.624;2023-03-15T04:17:44;2.40;99.90
9998;DHT22;5038;53.064;8.624;2023-03-15T04:20:14;2.40;99.90
9998;DHT22;5038;53.064;8.624;2023-03-15T04:22:44;2.40;99.90
9998;DHT22;5038;53.064;8.624;2023-03-15T04:25:29;2.40;99.90
9998;DHT22;5038;53.064;8.624;2023-03-15T04:28:11;2.40;99.90
9998;DHT22;5038;53.064;8.624;2023-03-15T04:30:42;2.30;99.90
9998;DHT22;5038;53.064;8.624;2023-03-15T04:33:31;2.30;99.90
9998;DHT22;5038;53.064;8.624;2023-03-15T04:36:14;2.30;99.90
9998;DHT22;5038;53.064;8.624;2023-03-15T04:38:54;2.30;99.90
9998;DHT22;5038;53.064;8.624;2023-03-15T04:41:43;2.30;99.90
9998;DHT22;5038;53.064;8.624;2023-03-15T04:44:22;2.20;99.90
9998;DHT22;5038;53.064;8.624;2023-03-15T04:47:08;2.20;99.90
9998;DHT22;5038;53.064;8.624;2023-03-15T04:49:59;2.20;99.90
9998;DHT22;5038;53.064;8.624;2023-03-15T04:52:35;2.20;99.90
9998;DHT22;5038;53.064;8.624;2023-03-15T04:55:19;2.20;99.90
9998;DHT22;5038;53.064;8.624;2023-03-15T04:58:11;4.00;99.90
9998;DHT22;5038;53.064;8.624;2023-03-15T05:01:04;2.10;99.90
9998;DHT22;5038;53.064;8.624;2023-03-15T05:03:44;2.00;99.90
9998;DHT22;5038;53.064;8.624;2023-03-15T05:06:27;2.00;99.90
9998;DHT22;5038;53.064;8.624;2023-03-15T05:09:07;2.00;99.90
9998;DHT22;5038;53.064;8.624;2023-03-15T05:12:05;2.00;99.90
9998;DHT22;5038;53.064;8.624;2023-03-15T05:14:43;1.90;99.90
9998;DHT22;5038;53.064;8.624;2023-03-15T05:17:30;1.90;99.90
9998;DHT22;5038;53.064;8.624;2023-03-15T05:20:17;1.90;99.90
9998;DHT22;5038;53.064;8.624;2023-03-15T05:23:08;1.90;99.90
9998;DHT22;5038;53.064;8.624;2023-03-15T05:26:14;1.80;99.90
9998;DHT22;5038;53.064;8.624;2023-03-15T05:29:08;1.80;99.90
9998;DHT22;5038;53.064;8.624;2023-03-15T05:32:05;1.80;99.90
9998;DHT22;5038;53.064;8.624;2023-03-15T05:34:54;1.70;99.90
9998;DHT22;5038;53.064;8.624;2023-03-15T05:37:42;1.70;99.90
9998;DHT22;5038;53.064;8.624;2023-03-15T05:40:33;1.70;99.90
9998;DHT22;5038;53.064;8.624;2023-03-15T05:43:36;1.70;99.90
9998;DHT22;5038;53.064;8.624;2023-03-15T05:46:36;1.80;99.90
9998;DHT22;5038;53.064;8.624;2023-03-15T05:49:10;1.60;99.90
9998;DHT22;5038;53.064;8.624;2023-03-15T05:51:46;1.60;99.90
9998;DHT22;5038;53.064;8.624;2023-03-15T05:54:33;1.60;99.90
9998;DHT22;5038;53.064;8.624;2023-03-15T05:57:09;1.60;99.90
9998;DHT22;5038;53.064;8.624;2023-03-15T05:59:54;1.60;99.90
9998;DHT22;5038;53.064;8.624;2023-03-15T06:02:43;1.60;99.90
9998;DHT22;5038;53.064;8.624;2023-03-15T06:05:34;1.60;99.90
9998;DHT22;5038;53.064;8.624;2023-03-15T06:08:06;1.60;99.90
9998;DHT22;5038;53.064;8.624;2023-03-15T06:10:39;1.60;99.90
9998;DHT22;5038;53.064;8.624;2023-03-15T06:13:09;1.60;99.90
9998;DHT22;5038;53.064;8.624;2023-03-15T06:15:40;1.60;99.90
9998;DHT22;5038;53.064;8.624;2023-03-15T06:18:10;1.60;99.90
9998;DHT22;5038;53.064;8.624;2023-03-15T06:20:40;1.60;99.90
9998;DHT22;5038;53.064;8.624;2023-03-15T06:23:12;1.60;99.90
9998;DHT22;5038;53.064;8.624;2023-03-15T06:25:44;1.60;99.90
9998;DHT22;5038;53.064;8.624;2023-03-15T06:28:13;1.60;99.90
9998;DHT22;5038;53.064;8.624;2023-03-15T06:30:49;1.60;99.90
9998;DHT22;5038;53.064;8.624;2023-03-15T06:33:21;1.60;99.90
9998;DHT22;5038;53.064;8.624;2023-03-15T06:35:50;1.70;99.90
9998;DHT22;5038;53.064;8.624;2023-03-15T06:38:19;1.70;99.90
9998;DHT22;5038;53.064;8.624;2023-03-15T06:40:48;1.80;99.90
9998;DHT22;5038;53.064;8.624;2023-03-15T06:43:17;2.00;99.90
9998;DHT22;5038;53.064;8.624;2023-03-15T06:45:46;2.10;99.90
9998;DHT22;5038;53.064;8.624;2023-03-15T06:48:16;2.20;99.90
9998;DHT22;5038;53.064;8.624;2023-03-15T06:50:45;2.30;99.90
9998;DHT22;5038;53.064;8.624;2023-03-15T06:53:14;2.40;99.90
9998;DHT22;5038;53.064;8.624;2023-03-15T06:55:45;2.50;99.90
9998;DHT22;5038;53.064;8.624;2023-03-15T06:58:13;2.60;99.90
9998;DHT22;5038;53.064;8.624;2023-03-15T07:00:42;2.60;99.90
9998;DHT22;5038;53.064;8.624;2023-03-15T07:03:10;2.60;99.90
9998;DHT22;5038;53.064;8.624;2023-03-15T07:05:40;2.50;99.90
9998;DHT22;5038;53.064;8.624;2023-03-15T07:08:08;2.50;99.90
9998;DHT22;5038;53.064;8.624;2023-03-15T07:10:36;2.40;99.90
9998;DHT22;5038;53.064;8.624;2023-03-15T07:13:04;2.40;99.90
9998;DHT22;5038;53.064;8.624;2023-03-15T07:15:35;2.50;99.90
9998;DHT22;5038;53.064;8.624;2023-03-15T07:22:38;2.60;99.90
9998;DHT22;5038;53.064;8.624;2023-03-15T07:25:07;2.60;99.90
9998;DHT22;5038;53.064;8.624;2023-03-15T07:27:40;2.60;99.90
9998;DHT22;5038;53.064;8.624;2023-03-15T07:31:20;2.60;99.90
9998;DHT22;5038;53.064;8.624;2023-03-15T07:33:49;2.70;99.90
9998;DHT22;5038;53.064;8.624;2023-03-15T07:36:17;2.70;99.90
9998;DHT22;5038;53.064;8.624;2023-03-15T07:38:49;2.80;99.90
9998;DHT22;5038;53.064;8.624;2023-03-15T07:41:17;2.80;99.90
9998;DHT22;5038;53.064;8.624;2023-03-15T07:44:15;3.30;99.90
9998;DHT22;5038;53.064;8.624;2023-03-15T07:46:43;3.00;99.90
9998;DHT22;5038;53.064;8.624;2023-03-15T07:49:12;3.00;99.90
9998;DHT22;5038;53.064;8.624;2023-03-15T07:51:40;3.10;99.90
9998;DHT22;5038;53.064;8.624;2023-03-15T07:54:10;3.20;99.90
9998;DHT22;5038;53.064;8.624;2023-03-15T07:56:38;3.30;99.90
9998;DHT22;5038;53.064;8.624;2023-03-15T07:59:07;3.30;99.90
9998;DHT22;5038;53.064;8.624;2023-03-15T08:01:35;3.40;99.90
9998;DHT22;5038;53.064;8.624;2023-03-15T08:04:04;3.50;99.90
9998;DHT22;5038;53.064;8.624;2023-03-15T08:06:32;3.60;99.90
9998;DHT22;5038;53.064;8.624;2023-03-15T08:09:00;3.70;99.90
9998;DHT22;5038;53.064;8.624;2023-03-15T08:11:33;3.80;99.90
9998;DHT22;5038;53.064;8.624;2023-03-15T08:14:03;4.00;99.90
9998;DHT22;5038;53.064;8.624;2023-03-15T08:16:31;4.10;99.90
9998;DHT22;5038;53.064;8.624;2023-03-15T08:19:00;4.30;99.90
9998;DHT22;5038;53.064;8.624;2023-03-15T08:21:28;4.40;99.90
9998;DHT22;5038;53.064;8.624;2023-03-15T08:23:59;4.60;99.90
9998;DHT22;5038;53.064;8.624;2023-03-15T08:26:27;4.80;99.90
9998;DHT22;5038;53.064;8.624;2023-03-15T08:28:57;4.90;99.90
9998;DHT22;5038;53.064;8.624;2023-03-15T08:31:25;5.10;99.90
9998;DHT22;5038;53.064;8.624;2023-03-15T08:33:53;5.20;99.90
9998;DHT22;5038;53.064;8.624;2023-03-15T08:36:21;5.30;99.90
9998;DHT22;5038;53.064;8.624;2023-03-15T08:38:50;5.40;99.90
9998;DHT22;5038;53.064;8.624;2023-03-15T08:41:18;5.60;99.90
9998;DHT22;5038;53.064;8.624;2023-03-15T08:43:46;5.60;99.90
9998;DHT22;5038;53.064;8.624;2023-03-15T08:46:15;5.70;99.90
9998;DHT22;5038;53.064;8.624;2023-03-15T08:48:44;5.80;99.90
9998;DHT22;5038;53.064;8.624;2023-03-15T08:51:12;5.80;99.90
9998;DHT22;5038;53.064;8.624;2023-03-15T08:53:40;5.90;99.90
9998;DHT22;5038;53.064;8.624;2023-03-15T08:56:08;5.90;99.90
9998;DHT22;5038;53.064;8.624;2023-03-15T08:58:36;6.00;99.90
9998;DHT22;5038;53.064;8.624;2023-03-15T09:01:05;6.10;99.90
9998;DHT22;5038;53.064;8.624;2023-03-15T09:03:34;6.20;99.90
9998;DHT22;5038;53.064;8.624;2023-03-15T09:06:02;6.20;99.90
9998;DHT22;5038;53.064;8.624;2023-03-15T09:08:31;6.30;99.90
9998;DHT22;5038;53.064;8.624;2023-03-15T09:10:59;6.30;99.90
9998;DHT22;5038;53.064;8.624;2023-03-15T09:13:28;6.30;99.90
9998;DHT22;5038;53.064;8.624;2023-03-15T09:15:57;6.40;99.90
9998;DHT22;5038;53.064;8.624;2023-03-15T09:18:25;6.40;99.90
9998;DHT22;5038;53.064;8.624;2023-03-15T09:20:55;6.50;99.90
9998;DHT22;5038;53.064;8.624;2023-03-15T09:23:23;6.50;99.90
9998;DHT22;5038;53.064;8.624;2023-03-15T09:25:51;6.50;99.90
9998;DHT22;5038;53.064;8.624;2023-03-15T09:28:20;6.50;99.90
9998;DHT22;5038;53.064;8.624;2023-03-15T09:30:48;6.60;99.90
9998;DHT22;5038;53.064;8.624;2023-03-15T09:33:16;6.60;99.90
9998;DHT22;5038;53.064;8.624;2023-03-15T09:35:45;6.60;99.90
9998;DHT22;5038;53.064;8.624;2023-03-15T09:38:15;6.60;99.90
9998;DHT22;5038;53.064;8.624;2023-03-15T09:40:44;6.60;99.90
9998;DHT22;5038;53.064;8.624;2023-03-15T09:43:30;6.70;99.90
9998;DHT22;5038;53.064;8.624;2023-03-15T09:46:12;6.70;99.90
9998;DHT22;5038;53.064;8.624;2023-03-15T09:48:49;6.70;99.90
9998;DHT22;5038;53.064;8.624;2023-03-15T09:51:27;6.80;99.90
9998;DHT22;5038;53.064;8.624;2023-03-15T09:54:07;6.80;99.90
9998;DHT22;5038;53.064;8.624;2023-03-15T09:56:39;6.80;99.90
9998;DHT22;5038;53.064;8.624;2023-03-15T09:59:12;6.80;99.90
9998;DHT22;5038;53.064;8.624;2023-03-15T10:01:42;6.90;99.90
9998;DHT22;5038;53.064;8.624;2023-03-15T10:04:15;7.00;99.90
9998;DHT22;5038;53.064;8.624;2023-03-15T10:06:48;7.00;99.90
9998;DHT22;5038;53.064;8.624;2023-03-15T10:09:22;7.00;99.90
9998;DHT22;5038;53.064;8.624;2023-03-15T10:12:01;7.00;99.90
9998;DHT22;5038;53.064;8.624;2023-03-15T10:14:40;6.80;99.90
9998;DHT22;5038;53.064;8.624;2023-03-15T10:17:20;6.30;99.90
9998;DHT22;5038;53.064;8.624;2023-03-15T10:19:53;5.70;99.90
9998;DHT22;5038;53.064;8.624;2023-03-15T10:22:28;5.20;99.90
9998;DHT22;5038;53.064;8.624;2023-03-15T10:25:03;4.80;99.90
9998;DHT22;5038;53.064;8.624;2023-03-15T10:27:41;4.40;99.90
9998;DHT22;5038;53.064;8.624;2023-03-15T10:30:15;4.10;99.90
9998;DHT22;5038;53.064;8.624;2023-03-15T10:32:46;3.80;99.90
9998;DHT22;5038;53.064;8.624;2023-03-15T10:35:18;3.50;99.90
9998;DHT22;5038;53.064;8.624;2023-03-15T10:37:47;3.30;99.90
9998;DHT22;5038;53.064;8.624;2023-03-15T10:40:37;3.20;99.90
9998;DHT22;5038;53.064;8.624;2023-03-15T10:43:14;3.00;99.90
9998;DHT22;5038;53.064;8.624;2023-03-15T10:45:47;2.90;99.90
9998;DHT22;5038;53.064;8.624;2023-03-15T10:48:24;2.70;99.90
9998;DHT22;5038;53.064;8.624;2023-03-15T10:50:53;2.70;99.90
9998;DHT22;5038;53.064;8.624;2023-03-15T10:53:23;2.60;99.90
9998;DHT22;5038;53.064;8.624;2023-03-15T10:56:11;2.70;99.90
9998;DHT22;5038;53.064;8.624;2023-03-15T10:58:46;2.70;99.90
9998;DHT22;5038;53.064;8.624;2023-03-15T11:01:34;2.80;99.90
9998;DHT22;5038;53.064;8.624;2023-03-15T11:04:13;2.90;99.90
9998;DHT22;5038;53.064;8.624;2023-03-15T11:06:44;3.00;99.90
9998;DHT22;5038;53.064;8.624;2023-03-15T11:09:15;3.00;99.90
9998;DHT22;5038;53.064;8.624;2023-03-15T11:11:57;3.10;99.90
9998;DHT22;5038;53.064;8.624;2023-03-15T11:14:32;3.20;99.90
9998;DHT22;5038;53.064;8.624;2023-03-15T11:17:01;3.20;99.90
9998;DHT22;5038;53.064;8.624;2023-03-15T11:19:33;3.30;99.90
9998;DHT22;5038;53.064;8.624;2023-03-15T11:22:03;3.40;99.90
9998;DHT22;5038;53.064;8.624;2023-03-15T11:24:32;3.40;99.90
9998;DHT22;5038;53.064;8.624;2023-03-15T11:27:08;3.60;99.90
9998;DHT22;5038;53.064;8.624;2023-03-15T11:29:39;3.60;99.90
9998;DHT22;5038;53.064;8.624;2023-03-15T11:32:12;3.60;99.90
9998;DHT22;5038;53.064;8.624;2023-03-15T11:34:44;3.70;99.90
9998;DHT22;5038;53.064;8.624;2023-03-15T11:37:18;3.70;99.90
9998;DHT22;5038;53.064;8.624;2023-03-15T11:39:51;3.70;99.90
9998;DHT22;5038;53.064;8.624;2023-03-15T11:42:40;3.80;99.90
9998;DHT22;5038;53.064;8.624;2023-03-15T11:45:17;3.90;99.90
9998;DHT22;5038;53.064;8.624;2023-03-15T11:47:50;3.90;99.90
9998;DHT22;5038;53.064;8.624;2023-03-15T11:50:20;3.90;99.90
9998;DHT22;5038;53.064;8.624;2023-03-15T11:52:49;3.90;99.90
9998;DHT22;5038;53.064;8.624;2023-03-15T11:55:27;3.90;99.90
9998;DHT22;5038;53.064;8.624;2023-03-15T11:58:30;3.80;99.90
9998;DHT22;5038;53.064;8.624;2023-03-15T12:01:03;3.90;99.90
9998;DHT22;5038;53.064;8.624;2023-03-15T12:03:38;3.90;99.90
9998;DHT22;5038;53.064;8.624;2023-03-15T12:06:12;3.90;99.90
9998;DHT22;5038;53.064;8.624;2023-03-15T12:09:01;3.90;99.90
9998;DHT22;5038;53.064;8.624;2023-03-15T12:11:40;4.10;99.90
9998;DHT22;5038;53.064;8.624;2023-03-15T12:14:28;4.00;99.90
9998;DHT22;5038;53.064;8.624;2023-03-15T12:17:37;4.10;99.90
9998;DHT22;5038;53.064;8.624;2023-03-15T12:20:18;4.20;99.90
9998;DHT22;5038;53.064;8.624;2023-03-15T12:22:49;4.30;99.90
9998;DHT22;5038;53.064;8.624;2023-03-15T12:25:21;4.40;99.90
9998;DHT22;5038;53.064;8.624;2023-03-15T12:27:53;4.40;99.90
9998;DHT22;5038;53.064;8.624;2023-03-15T12:30:29;4.50;99.90
9998;DHT22;5038;53.064;8.624;2023-03-15T12:33:01;4.50;99.90
9998;DHT22;5038;53.064;8.624;2023-03-15T12:35:36;4.50;99.90
9998;DHT22;5038;53.064;8.624;2023-03-15T12:38:10;4.60;99.90
9998;DHT22;5038;53.064;8.624;2023-03-15T12:40:49;4.60;99.90
9998;DHT22;5038;53.064;8.624;2023-03-15T12:43:36;4.50;99.90
9998;DHT22;5038;53.064;8.624;2023-03-15T12:46:06;4.60;99.90
9998;DHT22;5038;53.064;8.624;2023-03-15T12:48:35;4.60;99.90
9998;DHT22;5038;53.064;8.624;2023-03-15T12:51:07;4.60;99.90
9998;DHT22;5038;53.064;8.624;2023-03-15T12:53:47;4.60;99.90
9998;DHT22;5038;53.064;8.624;2023-03-15T12:56:41;4.60;99.90
9998;DHT22;5038;53.064;8.624;2023-03-15T12:59:29;4.70;99.90
9998;DHT22;5038;53.064;8.624;2023-03-15T13:02:01;4.80;99.90
9998;DHT22;5038;53.064;8.624;2023-03-15T13:04:30;4.80;99.90
9998;DHT22;5038;53.064;8.624;2023-03-15T13:07:22;4.90;99.90
9998;DHT22;5038;53.064;8.624;2023-03-15T13:10:14;5.00;99.90
9998;DHT22;5038;53.064;8.624;2023-03-15T13:12:49;5.10;99.90
9998;DHT22;5038;53.064;8.624;2023-03-15T13:15:23;5.20;99.90
9998;DHT22;5038;53.064;8.624;2023-03-15T13:17:56;5.20;99.90
9998;DHT22;5038;53.064;8.624;2023-03-15T13:20:40;5.30;99.90
9998;DHT22;5038;53.064;8.624;2023-03-15T13:23:14;5.30;99.90
9998;DHT22;5038;53.064;8.624;2023-03-15T13:26:01;5.40;99.90
9998;DHT22;5038;53.064;8.624;2023-03-15T13:28:34;5.50;99.90
9998;DHT22;5038;53.064;8.624;2023-03-15T13:31:10;5.50;99.90
9998;DHT22;5038;53.064;8.624;2023-03-15T13:33:41;5.60;99.90
9998;DHT22;5038;53.064;8.624;2023-03-15T13:36:12;5.60;99.90
9998;DHT22;5038;53.064;8.624;2023-03-15T13:38:47;5.70;99.90
9998;DHT22;5038;53.064;8.624;2023-03-15T13:41:18;5.70;99.90
9998;DHT22;5038;53.064;8.624;2023-03-15T13:43:49;5.80;99.90
9998;DHT22;5038;53.064;8.624;2023-03-15T13:46:19;5.90;99.90
9998;DHT22;5038;53.064;8.624;2023-03-15T13:48:51;6.00;99.90
9998;DHT22;5038;53.064;8.624;2023-03-15T13:51:22;6.00;99.90
9998;DHT22;5038;53.064;8.624;2023-03-15T13:53:53;6.10;99.90
9998;DHT22;5038;53.064;8.624;2023-03-15T13:56:28;6.20;99.90
9998;DHT22;5038;53.064;8.624;2023-03-15T13:59:14;6.20;99.90
9998;DHT22;5038;53.064;8.624;2023-03-15T14:01:43;6.30;99.90
9998;DHT22;5038;53.064;8.624;2023-03-15T14:04:15;6.40;99.90
9998;DHT22;5038;53.064;8.624;2023-03-15T14:06:44;6.40;99.90
9998;DHT22;5038;53.064;8.624;2023-03-15T14:09:17;6.40;99.90
9998;DHT22;5038;53.064;8.624;2023-03-15T14:12:00;6.50;99.90
9998;DHT22;5038;53.064;8.624;2023-03-15T14:14:30;6.60;99.90
9998;DHT22;5038;53.064;8.624;2023-03-15T14:16:59;6.60;99.90
9998;DHT22;5038;53.064;8.624;2023-03-15T14:19:34;6.70;99.90
9998;DHT22;5038;53.064;8.624;2023-03-15T14:22:11;6.80;99.90
9998;DHT22;5038;53.064;8.624;2023-03-15T14:24:42;6.80;99.90
9998;DHT22;5038;53.064;8.624;2023-03-15T14:27:15;6.90;99.90
9998;DHT22;5038;53.064;8.624;2023-03-15T14:29:47;6.90;99.90
9998;DHT22;5038;53.064;8.624;2023-03-15T14:32:26;7.00;99.90
9998;DHT22;5038;53.064;8.624;2023-03-15T14:35:05;7.10;99.90
9998;DHT22;5038;53.064;8.624;2023-03-15T14:37:37;7.20;99.90
9998;DHT22;5038;53.064;8.624;2023-03-15T14:40:13;7.20;99.90
9998;DHT22;5038;53.064;8.624;2023-03-15T14:42:42;7.20;99.90
9998;DHT22;5038;53.064;8.624;2023-03-15T14:45:11;7.30;99.90
9998;DHT22;5038;53.064;8.624;2023-03-15T14:47:43;7.30;99.90
9998;DHT22;5038;53.064;8.624;2023-03-15T14:50:25;7.30;99.90
9998;DHT22;5038;53.064;8.624;2023-03-15T14:52:55;7.40;99.90
9998;DHT22;5038;53.064;8.624;2023-03-15T14:55:28;7.40;99.90
9998;DHT22;5038;53.064;8.624;2023-03-15T14:57:59;7.40;99.90
9998;DHT22;5038;53.064;8.624;2023-03-15T15:00:27;7.40;99.90
9998;DHT22;5038;53.064;8.624;2023-03-15T15:02:57;7.40;99.90
9998;DHT22;5038;53.064;8.624;2023-03-15T15:05:28;7.50;99.90
9998;DHT22;5038;53.064;8.624;2023-03-15T15:08:02;7.40;99.90
9998;DHT22;5038;53.064;8.624;2023-03-15T15:10:31;7.50;99.90
9998;DHT22;5038;53.064;8.624;2023-03-15T15:13:01;7.40;99.90
9998;DHT22;5038;53.064;8.624;2023-03-15T15:15:33;7.50;99.90
9998;DHT22;5038;53.064;8.624;2023-03-15T15:18:21;7.50;99.90
9998;DHT22;5038;53.064;8.624;2023-03-15T15:20:51;7.50;99.90
9998;DHT22;5038;53.064;8.624;2023-03-15T15:23:25;7.50;99.90
9998;DHT22;5038;53.064;8.624;2023-03-15T15:25:55;7.50;99.90
9998;DHT22;5038;53.064;8.624;2023-03-15T15:28:24;7.50;99.90
9998;DHT22;5038;53.064;8.624;2023-03-15T15:31:03;7.50;99.90
9998;DHT22;5038;53.064;8.624;2023-03-15T15:33:31;7.50;99.90
9998;DHT22;5038;53.064;8.624;2023-03-15T15:36:01;7.50;99.90
9998;DHT22;5038;53.064;8.624;2023-03-15T15:38:32;7.50;99.90
9998;DHT22;5038;53.064;8.624;2023-03-15T15:41:05;7.50;99.90
9998;DHT22;5038;53.064;8.624;2023-03-15T15:43:38;7.50;99.90
9998;DHT22;5038;53.064;8.624;2023-03-15T15:46:08;7.60;99.90
9998;DHT22;5038;53.064;8.624;2023-03-15T15:48:37;7.60;99.90
9998;DHT22;5038;53.064;8.624;2023-03-15T15:51:24;7.50;99.90
9998;DHT22;5038;53.064;8.624;2023-03-15T15:53:55;7.60;99.90
9998;DHT22;5038;53.064;8.624;2023-03-15T15:56:29;7.60;99.90
9998;DHT22;5038;53.064;8.624;2023-03-15T15:58:59;7.50;99.90
9998;DHT22;5038;53.064;8.624;2023-03-15T16:01:29;7.60;99.90
9998;DHT22;5038;53.064;8.624;2023-03-15T16:03:59;7.60;99.90
9998;DHT22;5038;53.064;8.624;2023-03-15T16:06:29;7.60;99.90
9998;DHT22;5038;53.064;8.624;2023-03-15T16:08:58;7.60;99.90
9998;DHT22;5038;53.064;8.624;2023-03-15T16:11:26;7.60;99.90
9998;DHT22;5038;53.064;8.624;2023-03-15T16:13:55;7.50;99.90
9998;DHT22;5038;53.064;8.624;2023-03-15T16:16:24;7.50;99.90
9998;DHT22;5038;53.064;8.624;2023-03-15T16:18:53;7.50;99.90
9998;DHT22;5038;53.064;8.624;2023-03-15T16:21:28;7.50;99.90
9998;DHT22;5038;53.064;8.624;2023-03-15T16:24:03;7.50;99.90
9998;DHT22;5038;53.064;8.624;2023-03-15T16:26:34;7.50;99.90
9998;DHT22;5038;53.064;8.624;2023-03-15T16:29:12;7.50;99.90
9998;DHT22;5038;53.064;8.624;2023-03-15T16:31:41;7.50;99.90
9998;DHT22;5038;53.064;8.624;2023-03-15T16:34:10;7.50;99.90
9998;DHT22;5038;53.064;8.624;2023-03-15T16:36:40;7.40;99.90
9998;DHT22;5038;53.064;8.624;2023-03-15T16:39:12;7.40;99.90
9998;DHT22;5038;53.064;8.624;2023-03-15T16:41:41;7.30;99.90
9998;DHT22;5038;53.064;8.624;2023-03-15T16:44:10;7.30;99.90
9998;DHT22;5038;53.064;8.624;2023-03-15T16:46:39;7.30;99.90
9998;DHT22;5038;53.064;8.624;2023-03-15T16:49:07;7.20;99.90
9998;DHT22;5038;53.064;8.624;2023-03-15T16:51:39;7.20;99.90
9998;DHT22;5038;53.064;8.624;2023-03-15T16:54:11;7.20;99.90
9998;DHT22;5038;53.064;8.624;2023-03-15T16:56:53;7.10;99.90
9998;DHT22;5038;53.064;8.624;2023-03-15T16:59:21;7.10;99.90
9998;DHT22;5038;53.064;8.624;2023-03-15T17:01:49;7.10;99.90
9998;DHT22;5038;53.064;8.624;2023-03-15T17:04:18;7.00;99.90